sensor_id;sensor_type;location;lat;lon;timestamp;P1;durP1;ratioP1;P2;durP2;ratioP2
81365;SDS011;70822;51.990;22.766;2024-02-26T00:05:46;11.80;;;6.30;;
81365;SDS011;70822;51.990;22.766;2024-02-26T00:20:51;8.57;;;6.40;;
81365;SDS011;70822;51.990;22.766;2024-02-26T00:35:56;12.40;;;8.37;;
81365;SDS011;70822;51.990;22.766;2024-02-26T00:51:01;15.57;;;10.33;;
81365;SDS011;70822;51.990;22.766;2024-02-26T01:06:09;27.93;;;9.77;;
81365;SDS011;70822;51.990;22.766;2024-02-26T01:21:14;20.27;;;11.57;;
81365;SDS011;70822;51.990;22.766;2024-02-26T01:36:19;13.10;;;7.80;;
81365;SDS011;70822;51.990;22.766;2024-02-26T01:51:24;15.43;;;10.33;;
81365;SDS011;70822;51.990;22.766;2024-02-26T02:06:30;20.67;;;11.47;;
81365;SDS011;70822;51.990;22.766;2024-02-26T02:21:35;12.63;;;7.93;;
81365;SDS011;70822;51.990;22.766;2024-02-26T02:36:51;12.73;;;7.43;;
81365;SDS011;70822;51.990;22.766;2024-02-26T02:51:56;14.07;;;8.33;;
81365;SDS011;70822;51.990;22.766;2024-02-26T03:07:01;14.27;;;8.83;;
81365;SDS011;70822;51.990;22.766;2024-02-26T03:22:07;6.00;;;4.30;;
81365;SDS011;70822;51.990;22.766;2024-02-26T03:37:12;9.93;;;6.97;;
81365;SDS011;70822;51.990;22.766;2024-02-26T03:52:16;10.20;;;6.77;;
81365;SDS011;70822;51.990;22.766;2024-02-26T04:07:23;11.13;;;8.17;;
81365;SDS011;70822;51.990;22.766;2024-02-26T04:22:28;15.70;;;8.60;;
81365;SDS011;70822;51.990;22.766;2024-02-26T04:37:33;14.83;;;9.53;;
81365;SDS011;70822;51.990;22.766;2024-02-26T04:52:38;17.27;;;10.50;;
81365;SDS011;70822;51.990;22.766;2024-02-26T05:07:43;19.30;;;10.97;;
81365;SDS011;70822;51.990;22.766;2024-02-26T05:22:49;16.43;;;8.50;;
81365;SDS011;70822;51.990;22.766;2024-02-26T05:37:54;13.87;;;8.23;;
81365;SDS011;70822;51.990;22.766;2024-02-26T05:53:00;23.03;;;13.43;;
81365;SDS011;70822;51.990;22.766;2024-02-26T06:08:06;59.93;;;23.77;;
81365;SDS011;70822;51.990;22.766;2024-02-26T06:23:11;21.30;;;14.53;;
81365;SDS011;70822;51.990;22.766;2024-02-26T06:38:16;32.43;;;21.70;;
81365;SDS011;70822;51.990;22.766;2024-02-26T06:53:21;27.50;;;18.17;;
81365;SDS011;70822;51.990;22.766;2024-02-26T07:08:26;44.27;;;20.27;;
81365;SDS011;70822;51.990;22.766;2024-02-26T07:23:31;25.33;;;13.30;;
81365;SDS011;70822;51.990;22.766;2024-02-26T07:38:36;22.83;;;13.03;;
81365;SDS011;70822;51.990;22.766;2024-02-26T07:53:44;18.70;;;11.40;;
81365;SDS011;70822;51.990;22.766;2024-02-26T08:08:49;19.83;;;11.30;;
81365;SDS011;70822;51.990;22.766;2024-02-26T08:23:54;15.07;;;8.37;;
81365;SDS011;70822;51.990;22.766;2024-02-26T08:39:00;13.87;;;8.23;;
81365;SDS011;70822;51.990;22.766;2024-02-26T08:54:05;21.00;;;11.00;;
81365;SDS011;70822;51.990;22.766;2024-02-26T09:09:10;19.20;;;10.53;;
81365;SDS011;70822;51.990;22.766;2024-02-26T09:24:15;26.73;;;13.40;;
81365;SDS011;70822;51.990;22.766;2024-02-26T09:39:20;15.33;;;8.67;;
81365;SDS011;70822;51.990;22.766;2024-02-26T09:54:25;10.20;;;6.00;;
81365;SDS011;70822;51.990;22.766;2024-02-26T10:09:33;51.00;;;21.30;;
81365;SDS011;70822;51.990;22.766;2024-02-26T10:24:39;20.47;;;9.73;;
81365;SDS011;70822;51.990;22.766;2024-02-26T10:39:48;25.97;;;13.77;;
81365;SDS011;70822;51.990;22.766;2024-02-26T10:54:53;23.63;;;12.97;;
81365;SDS011;70822;51.990;22.766;2024-02-26T11:10:03;10.60;;;8.00;;
81365;SDS011;70822;51.990;22.766;2024-02-26T11:25:12;20.50;;;11.27;;
81365;SDS011;70822;51.990;22.766;2024-02-26T11:40:17;9.77;;;6.67;;
81365;SDS011;70822;51.990;22.766;2024-02-26T11:55:29;17.20;;;9.70;;
81365;SDS011;70822;51.990;22.766;2024-02-26T12:25:43;10.93;;;7.97;;
81365;SDS011;70822;51.990;22.766;2024-02-26T12:40:49;13.70;;;7.77;;
81365;SDS011;70822;51.990;22.766;2024-02-26T12:55:54;14.17;;;8.43;;
81365;SDS011;70822;51.990;22.766;2024-02-26T13:11:00;34.27;;;20.13;;
81365;SDS011;70822;51.990;22.766;2024-02-26T13:26:06;25.23;;;16.33;;
81365;SDS011;70822;51.990;22.766;2024-02-26T13:41:12;42.77;;;22.37;;
81365;SDS011;70822;51.990;22.766;2024-02-26T13:56:16;44.03;;;24.67;;
81365;SDS011;70822;51.990;22.766;2024-02-26T14:11:22;37.27;;;20.83;;
81365;SDS011;70822;51.990;22.766;2024-02-26T14:26:27;30.40;;;17.90;;
81365;SDS011;70822;51.990;22.766;2024-02-26T14:41:33;25.03;;;14.63;;
81365;SDS011;70822;51.990;22.766;2024-02-26T14:56:38;37.53;;;21.57;;
81365;SDS011;70822;51.990;22.766;2024-02-26T15:11:43;43.13;;;20.17;;
81365;SDS011;70822;51.990;22.766;2024-02-26T15:26:48;46.50;;;25.13;;
81365;SDS011;70822;51.990;22.766;2024-02-26T15:41:53;51.23;;;25.40;;
81365;SDS011;70822;51.990;22.766;2024-02-26T15:56:58;46.50;;;26.40;;
81365;SDS011;70822;51.990;22.766;2024-02-26T16:12:06;52.37;;;25.17;;
81365;SDS011;70822;51.990;22.766;2024-02-26T16:27:17;65.80;;;32.23;;
81365;SDS011;70822;51.990;22.766;2024-02-26T16:42:22;51.50;;;28.33;;
81365;SDS011;70822;51.990;22.766;2024-02-26T16:57:27;74.47;;;36.40;;
81365;SDS011;70822;51.990;22.766;2024-02-26T17:12:33;41.50;;;26.37;;
81365;SDS011;70822;51.990;22.766;2024-02-26T17:27:38;69.43;;;38.30;;
81365;SDS011;70822;51.990;22.766;2024-02-26T17:42:43;66.17;;;39.13;;
81365;SDS011;70822;51.990;22.766;2024-02-26T17:57:48;34.30;;;21.50;;
81365;SDS011;70822;51.990;22.766;2024-02-26T18:12:53;29.77;;;17.43;;
81365;SDS011;70822;51.990;22.766;2024-02-26T18:28:02;18.70;;;12.07;;
81365;SDS011;70822;51.990;22.766;2024-02-26T18:43:07;19.83;;;10.90;;
81365;SDS011;70822;51.990;22.766;2024-02-26T18:58:12;16.00;;;9.67;;
81365;SDS011;70822;51.990;22.766;2024-02-26T19:13:17;25.40;;;14.07;;
81365;SDS011;70822;51.990;22.766;2024-02-26T19:28:23;24.30;;;13.50;;
81365;SDS011;70822;51.990;22.766;2024-02-26T19:43:28;49.00;;;20.80;;
81365;SDS011;70822;51.990;22.766;2024-02-26T19:58:33;19.47;;;11.53;;
81365;SDS011;70822;51.990;22.766;2024-02-26T20:13:38;19.70;;;11.80;;
81365;SDS011;70822;51.990;22.766;2024-02-26T20:28:46;19.80;;;9.13;;
81365;SDS011;70822;51.990;22.766;2024-02-26T20:43:51;12.93;;;7.63;;
81365;SDS011;70822;51.990;22.766;2024-02-26T20:58:56;14.77;;;9.00;;
81365;SDS011;70822;51.990;22.766;2024-02-26T21:14:01;14.33;;;7.60;;
81365;SDS011;70822;51.990;22.766;2024-02-26T21:29:06;14.97;;;8.23;;
81365;SDS011;70822;51.990;22.766;2024-02-26T21:44:11;9.73;;;6.20;;
81365;SDS011;70822;51.990;22.766;2024-02-26T21:59:17;17.63;;;9.40;;
81365;SDS011;70822;51.990;22.766;2024-02-26T22:14:23;13.67;;;8.13;;
81365;SDS011;70822;51.990;22.766;2024-02-26T22:29:30;13.80;;;6.43;;
81365;SDS011;70822;51.990;22.766;2024-02-26T22:44:35;13.63;;;8.27;;
81365;SDS011;70822;51.990;22.766;2024-02-26T22:59:43;13.20;;;7.20;;
81365;SDS011;70822;51.990;22.766;2024-02-26T23:14:48;13.73;;;9.43;;
81365;SDS011;70822;51.990;22.766;2024-02-26T23:29:53;16.23;;;7.90;;
81365;SDS011;70822;51.990;22.766;2024-02-26T23:44:58;15.07;;;7.37;;
